Terminal Aerodrome Forecast
Issued by NWS

Home | Current Version | Previous Version | Text Only | Print | Product List | Glossary On
Versions: 1 2 3 4 5 6 7 8 9 10 11 12 13 14 15 16 17 18 19 20 21 22 23 24 25 26 27 28
000
FTUS41 KBUF 041132
TAFIAG
TAF
KIAG 041132Z 0412/0512 22004KT P6SM BKN080
     FM041700 25014G22KT P6SM VCTS BKN045CB
     FM042000 24014G22KT 6SM -SHRA VCTS BKN045CB
     FM050000 25009KT 6SM -SHRA BKN045
     FM050200 26006KT P6SM VCSH BKN045
     FM050500 28006KT P6SM BKN045=

USA.gov is the U.S. government's official web portal to all federal, state and local government web resources and services.